Terminal Aerodrome Forecast
Issued by NWS

Home | Current Version | Previous Version | Text Only | Print | Product List | Glossary On
Versions: 1 2 3 4 5 6 7 8 9 10 11 12 13 14 15 16 17
000
FTUS41 KPBZ 240706 AAA
TAFHLG
TAF AMD
KHLG 240706Z 2407/2506 15007KT P6SM OVC060 WS020/20040KT
      TEMPO 2408/2410 6SM -RA
     FM241300 20008G18KT P6SM BKN100=

USA.gov is the U.S. government's official web portal to all federal, state and local government web resources and services.